createdAt,value
2016-05-07T00:00:32.671Z,0
2016-05-07T00:01:32.673Z,0
2016-05-07T00:02:32.645Z,0
2016-05-07T00:03:32.648Z,0
2016-05-07T00:04:32.462Z,0
2016-05-07T00:05:32.434Z,0
2016-05-07T00:06:32.625Z,0
2016-05-07T00:07:32.565Z,0
2016-05-07T00:08:32.552Z,0
2016-05-07T00:09:32.570Z,0
2016-05-07T00:10:32.525Z,0
2016-05-07T00:11:32.498Z,0
2016-05-07T00:12:32.391Z,0
2016-05-07T00:13:32.455Z,0
2016-05-07T00:14:32.444Z,0
2016-05-07T00:15:32.289Z,0
2016-05-07T00:16:32.416Z,0
2016-05-07T00:17:32.404Z,0
2016-05-07T00:18:32.375Z,0
2016-05-07T00:19:32.191Z,0
2016-05-07T00:20:32.335Z,0
2016-05-07T00:21:32.321Z,0
2016-05-07T00:22:32.168Z,0
2016-05-07T00:23:32.279Z,0
2016-05-07T00:24:32.266Z,0
2016-05-07T00:25:32.254Z,0
2016-05-07T00:26:32.241Z,0
2016-05-07T00:27:32.228Z,0
2016-05-07T00:28:32.199Z,0
2016-05-07T00:29:32.186Z,0
2016-05-07T00:30:32.174Z,0
2016-05-07T00:31:32.160Z,0
2016-05-07T00:32:31.960Z,0
2016-05-07T00:33:31.947Z,0
2016-05-07T00:34:31.934Z,0
2016-05-07T00:35:32.078Z,0
2016-05-07T00:36:32.048Z,0
2016-05-07T00:37:32.037Z,0
2016-05-07T00:38:32.008Z,0
2016-05-07T00:39:32.011Z,0
2016-05-07T00:40:31.825Z,0
2016-05-07T00:41:31.969Z,0
2016-05-07T00:42:31.799Z,0
2016-05-07T00:43:31.927Z,0
2016-05-07T00:44:31.914Z,0
2016-05-07T00:45:31.902Z,0
2016-05-07T00:46:31.872Z,0
2016-05-07T00:47:31.860Z,0
2016-05-07T00:48:31.675Z,0
2016-05-07T00:49:31.818Z,0
2016-05-07T00:50:31.633Z,0
2016-05-07T00:51:31.777Z,0
2016-05-07T00:52:31.748Z,0
2016-05-07T00:53:31.594Z,0
2016-05-07T00:54:31.722Z,0
2016-05-07T00:55:31.569Z,0
2016-05-07T00:56:31.697Z,0
2016-05-07T00:57:31.698Z,0
2016-05-07T00:58:31.671Z,0
2016-05-07T00:59:31.470Z,0
2016-05-07T01:00:31.629Z,0
2016-05-07T01:01:31.600Z,0
2016-05-07T01:02:31.431Z,0
2016-05-07T01:03:31.418Z,0
2016-05-07T01:04:31.562Z,0
2016-05-07T01:05:31.549Z,0
2016-05-07T01:06:31.348Z,0
2016-05-07T01:07:31.507Z,0
2016-05-07T01:08:31.322Z,0
2016-05-07T01:09:31.309Z,0
2016-05-07T01:10:31.453Z,0
2016-05-07T01:11:31.268Z,0
2016-05-07T01:12:31.552Z,0
2016-05-07T01:13:31.398Z,0
2016-05-07T01:14:31.386Z,0
2016-05-07T01:15:31.388Z,0
2016-05-07T01:16:31.344Z,0
2016-05-07T01:17:31.331Z,0
2016-05-07T01:18:31.161Z,0
2016-05-07T01:19:31.289Z,0
2016-05-07T01:20:31.260Z,0
2016-05-07T01:21:31.264Z,0
2016-05-07T01:22:31.079Z,0
2016-05-07T01:23:30.910Z,0
2016-05-07T01:24:31.037Z,0
2016-05-07T01:25:31.010Z,0
2016-05-07T01:26:31.026Z,0
2016-05-07T01:27:31.515Z,0
2016-05-07T01:28:30.877Z,0
2016-05-07T01:29:31.113Z,0
2016-05-07T01:30:31.084Z,0
2016-05-07T01:31:31.057Z,0
2016-05-07T01:32:30.903Z,0
2016-05-07T01:33:30.906Z,0
2016-05-07T01:34:31.018Z,0
2016-05-07T01:35:30.989Z,0
2016-05-07T01:36:30.976Z,0
2016-05-07T01:37:30.962Z,0
2016-05-07T01:38:30.934Z,0
2016-05-07T01:39:30.765Z,0
2016-05-07T01:40:30.909Z,0
2016-05-07T01:41:30.748Z,0
2016-05-07T01:42:31.755Z,0
2016-05-07T01:43:30.914Z,0
2016-05-07T01:44:30.897Z,0
2016-05-07T01:45:30.696Z,0
2016-05-07T01:46:30.840Z,0
2016-05-07T01:47:30.734Z,0
2016-05-07T01:48:30.611Z,0
2016-05-07T01:49:30.753Z,0
2016-05-07T01:50:30.570Z,0
2016-05-07T01:51:30.556Z,0
2016-05-07T01:52:30.714Z,0
2016-05-07T01:53:30.671Z,0
2016-05-07T01:54:30.658Z,0
2016-05-07T01:55:30.489Z,0
2016-05-07T01:56:30.633Z,0
2016-05-07T01:57:31.166Z,0
2016-05-07T01:58:30.575Z,0
2016-05-07T01:59:30.578Z,0
2016-05-07T02:00:30.393Z,0
2016-05-07T02:01:30.380Z,0
2016-05-07T02:02:30.367Z,0
2016-05-07T02:03:30.510Z,0
2016-05-07T02:04:30.497Z,0
2016-05-07T02:05:30.453Z,0
2016-05-07T02:06:30.285Z,0
2016-05-07T02:07:30.427Z,0
2016-05-07T02:08:30.243Z,0
2016-05-07T02:09:30.229Z,0
2016-05-07T02:10:30.216Z,0
2016-05-07T02:11:30.360Z,0
2016-05-07T02:12:30.191Z,0
2016-05-07T02:13:30.303Z,0
2016-05-07T02:14:30.149Z,0
2016-05-07T02:15:30.292Z,0
2016-05-07T02:16:30.280Z,0
2016-05-07T02:17:30.267Z,0
2016-05-07T02:18:30.082Z,0
2016-05-07T02:19:30.037Z,0
2016-05-07T02:20:30.197Z,0
2016-05-07T02:21:30.167Z,0
2016-05-07T02:22:29.999Z,0
2016-05-07T02:23:30.158Z,0
2016-05-07T02:24:30.117Z,0
2016-05-07T02:25:29.948Z,0
2016-05-07T02:26:30.090Z,0
2016-05-07T02:27:30.062Z,0
2016-05-07T02:28:30.034Z,0
2016-05-07T02:29:30.037Z,0
2016-05-07T02:30:29.695Z,0
2016-05-07T02:31:29.994Z,0
2016-05-07T02:32:29.981Z,0
2016-05-07T02:33:29.954Z,0
2016-05-07T02:34:29.941Z,0
2016-05-07T02:35:29.928Z,0
2016-05-07T02:36:29.914Z,0
2016-05-07T02:37:29.885Z,0
2016-05-07T02:38:29.717Z,0
2016-05-07T02:39:29.861Z,0
2016-05-07T02:40:29.847Z,0
2016-05-07T02:41:29.819Z,0
2016-05-07T02:42:29.790Z,0
2016-05-07T02:43:29.636Z,0
2016-05-07T02:44:29.764Z,0
2016-05-07T02:45:29.752Z,0
2016-05-07T02:46:29.566Z,0
2016-05-07T02:47:29.710Z,0
2016-05-07T02:48:29.696Z,0
2016-05-07T02:49:29.356Z,0
2016-05-07T02:50:29.655Z,0
2016-05-07T02:51:29.643Z,0
2016-05-07T02:52:29.457Z,0
2016-05-07T02:53:29.445Z,0
2016-05-07T02:54:29.573Z,0
2016-05-07T02:55:29.575Z,0
2016-05-07T02:56:29.546Z,0
2016-05-07T02:57:29.799Z,0
2016-05-07T02:58:29.520Z,0
2016-05-07T02:59:29.351Z,0
2016-05-07T03:00:29.479Z,0
2016-05-07T03:01:29.466Z,0
2016-05-07T03:02:29.453Z,0
2016-05-07T03:03:29.425Z,0
2016-05-07T03:04:29.412Z,0
2016-05-07T03:05:29.399Z,0
2016-05-07T03:06:29.370Z,0
2016-05-07T03:07:29.341Z,0
2016-05-07T03:08:29.328Z,0
2016-05-07T03:09:29.316Z,0
2016-05-07T03:10:29.303Z,0
2016-05-07T03:11:29.133Z,0
2016-05-07T03:12:29.933Z,0
2016-05-07T03:13:29.091Z,0
2016-05-07T03:14:29.236Z,0
2016-05-07T03:15:29.222Z,0
2016-05-07T03:16:29.194Z,0
2016-05-07T03:17:29.181Z,0
2016-05-07T03:18:29.168Z,0
2016-05-07T03:19:28.998Z,0
2016-05-07T03:20:29.127Z,0
2016-05-07T03:21:29.113Z,0
2016-05-07T03:22:29.070Z,0
2016-05-07T03:23:29.072Z,0
2016-05-07T03:24:29.076Z,0
2016-05-07T03:25:29.046Z,0
2016-05-07T03:26:29.018Z,0
2016-05-07T03:27:29.020Z,0
2016-05-07T03:28:28.820Z,0
2016-05-07T03:29:28.947Z,0
2016-05-07T03:30:28.795Z,0
2016-05-07T03:31:28.937Z,0
2016-05-07T03:32:28.909Z,0
2016-05-07T03:33:28.724Z,0
2016-05-07T03:34:28.712Z,0
2016-05-07T03:35:28.714Z,0
2016-05-07T03:36:28.826Z,0
2016-05-07T03:37:28.672Z,0
2016-05-07T03:38:28.659Z,0
2016-05-07T03:39:28.802Z,0
2016-05-07T03:40:28.775Z,0
2016-05-07T03:41:28.761Z,0
2016-05-07T03:42:28.591Z,0
2016-05-07T03:43:28.719Z,0
2016-05-07T03:44:28.410Z,0
2016-05-07T03:45:28.678Z,0
2016-05-07T03:46:28.666Z,0
2016-05-07T03:47:28.652Z,0
2016-05-07T03:48:28.640Z,0
2016-05-07T03:49:28.627Z,0
2016-05-07T03:50:28.441Z,0
2016-05-07T03:51:28.444Z,0
2016-05-07T03:52:28.571Z,0
2016-05-07T03:53:28.528Z,0
2016-05-07T03:54:28.359Z,0
2016-05-07T03:55:28.517Z,0
2016-05-07T03:56:28.490Z,0
2016-05-07T03:57:28.476Z,0
2016-05-07T03:58:28.307Z,0
2016-05-07T03:59:28.294Z,0
2016-05-07T04:00:28.265Z,0
2016-05-07T04:01:28.425Z,0
2016-05-07T04:02:28.395Z,0
2016-05-07T04:03:28.383Z,0
2016-05-07T04:04:28.354Z,0
2016-05-07T04:05:28.326Z,0
2016-05-07T04:06:28.141Z,0
2016-05-07T04:07:28.284Z,0
2016-05-07T04:08:28.272Z,0
2016-05-07T04:09:28.274Z,0
2016-05-07T04:10:27.930Z,0
2016-05-07T04:11:27.902Z,0
2016-05-07T04:12:28.063Z,0
2016-05-07T04:13:28.175Z,0
2016-05-07T04:14:28.178Z,0
2016-05-07T04:15:28.149Z,0
2016-05-07T04:16:27.977Z,0
2016-05-07T04:17:28.124Z,0
2016-05-07T04:18:28.093Z,0
2016-05-07T04:19:28.080Z,0
2016-05-07T04:20:28.051Z,0
2016-05-07T04:21:28.038Z,0
2016-05-07T04:22:28.040Z,0
2016-05-07T04:23:28.012Z,0
2016-05-07T04:24:27.843Z,0
2016-05-07T04:25:27.971Z,0
2016-05-07T04:26:27.942Z,0
2016-05-07T04:27:28.132Z,0
2016-05-07T04:28:27.776Z,0
2016-05-07T04:29:27.903Z,0
2016-05-07T04:30:27.890Z,0
2016-05-07T04:31:27.862Z,0
2016-05-07T04:32:27.864Z,0
2016-05-07T04:33:27.836Z,0
2016-05-07T04:34:27.511Z,0
2016-05-07T04:35:27.794Z,0
2016-05-07T04:36:27.782Z,0
2016-05-07T04:37:27.784Z,0
2016-05-07T04:38:27.755Z,0
2016-05-07T04:39:27.728Z,0
2016-05-07T04:40:27.714Z,0
2016-05-07T04:41:27.685Z,0
2016-05-07T04:42:27.422Z,0
2016-05-07T04:43:27.504Z,0
2016-05-07T04:44:27.663Z,0
2016-05-07T04:45:27.633Z,0
2016-05-07T04:46:27.605Z,0
2016-05-07T04:47:27.592Z,0
2016-05-07T04:48:27.424Z,0
2016-05-07T04:49:27.551Z,0
2016-05-07T04:50:27.382Z,0
2016-05-07T04:51:27.510Z,0
2016-05-07T04:52:27.512Z,0
2016-05-07T04:53:27.483Z,0
2016-05-07T04:54:27.470Z,0
2016-05-07T04:55:27.442Z,0
2016-05-07T04:56:27.429Z,0
2016-05-07T04:57:28.166Z,0
2016-05-07T04:58:27.231Z,0
2016-05-07T04:59:27.374Z,0
2016-05-07T05:00:27.362Z,0
2016-05-07T05:01:27.193Z,0
2016-05-07T05:02:27.179Z,0
2016-05-07T05:03:27.307Z,0
2016-05-07T05:04:27.294Z,0
2016-05-07T05:05:27.282Z,0
2016-05-07T05:06:27.253Z,0
2016-05-07T05:07:27.099Z,0
2016-05-07T05:08:27.055Z,0
2016-05-07T05:09:27.042Z,0
2016-05-07T05:10:27.186Z,0
2016-05-07T05:11:27.173Z,0
2016-05-07T05:12:26.988Z,4
2016-05-07T05:13:26.975Z,4
2016-05-07T05:14:27.118Z,0
2016-05-07T05:15:27.089Z,4
2016-05-07T05:16:27.092Z,8
2016-05-07T05:17:26.908Z,4
2016-05-07T05:18:27.050Z,4
2016-05-07T05:19:27.038Z,8
2016-05-07T05:20:26.853Z,12
2016-05-07T05:21:26.996Z,4
2016-05-07T05:22:26.828Z,4
2016-05-07T05:23:26.955Z,8
2016-05-07T05:24:26.941Z,12
2016-05-07T05:25:26.913Z,12
2016-05-07T05:26:26.744Z,12
2016-05-07T05:27:26.840Z,16
2016-05-07T05:28:26.874Z,20
2016-05-07T05:29:26.690Z,28
2016-05-07T05:30:26.833Z,32
2016-05-07T05:31:26.820Z,32
2016-05-07T05:32:26.807Z,36
2016-05-07T05:33:26.795Z,40
2016-05-07T05:34:26.765Z,44
2016-05-07T05:35:26.737Z,32
2016-05-07T05:36:26.724Z,40
2016-05-07T05:37:26.555Z,28
2016-05-07T05:38:26.698Z,36
2016-05-07T05:39:26.654Z,36
2016-05-07T05:40:26.641Z,32
2016-05-07T05:41:26.629Z,36
2016-05-07T05:42:27.272Z,32
2016-05-07T05:43:26.289Z,32
2016-05-07T05:44:26.590Z,24
2016-05-07T05:45:26.436Z,32
2016-05-07T05:46:26.392Z,40
2016-05-07T05:47:26.378Z,36
2016-05-07T05:48:26.506Z,44
2016-05-07T05:49:26.338Z,60
2016-05-07T05:50:26.355Z,84
2016-05-07T05:51:26.468Z,108
2016-05-07T05:52:26.283Z,104
2016-05-07T05:53:26.411Z,144
2016-05-07T05:54:26.429Z,168
2016-05-07T05:55:26.385Z,172
2016-05-07T05:56:26.232Z,204
2016-05-07T05:57:26.984Z,192
2016-05-07T05:58:26.346Z,196
2016-05-07T05:59:26.333Z,208
2016-05-07T06:00:26.305Z,288
2016-05-07T06:01:26.276Z,232
2016-05-07T06:02:26.263Z,240
2016-05-07T06:03:26.250Z,348
2016-05-07T06:04:26.237Z,364
2016-05-07T06:05:26.224Z,336
2016-05-07T06:06:26.227Z,344
2016-05-07T06:07:26.182Z,360
2016-05-07T06:08:25.842Z,400
2016-05-07T06:09:25.985Z,476
2016-05-07T06:10:26.145Z,484
2016-05-07T06:11:26.100Z,436
2016-05-07T06:12:26.117Z,384
2016-05-07T06:13:26.073Z,324
2016-05-07T06:14:26.061Z,292
2016-05-07T06:15:26.033Z,384
2016-05-07T06:16:26.036Z,484
2016-05-07T06:17:26.006Z,516
2016-05-07T06:18:25.994Z,492
2016-05-07T06:19:25.965Z,424
2016-05-07T06:20:25.953Z,420
2016-05-07T06:21:25.767Z,500
2016-05-07T06:22:25.911Z,516
2016-05-07T06:23:26.335Z,468
2016-05-07T06:24:27.369Z,376
2016-05-07T06:25:25.856Z,220
2016-05-07T06:26:25.843Z,200
2016-05-07T06:27:25.861Z,264
2016-05-07T06:28:25.818Z,316
2016-05-07T06:29:25.788Z,304
2016-05-07T06:30:25.776Z,268
2016-05-07T06:31:25.762Z,348
2016-05-07T06:32:25.734Z,388
2016-05-07T06:33:25.566Z,384
2016-05-07T06:34:25.693Z,520
2016-05-07T06:35:25.523Z,520
2016-05-07T06:36:25.511Z,456
2016-05-07T06:37:25.326Z,484
2016-05-07T06:38:25.641Z,528
2016-05-07T06:39:25.597Z,656
2016-05-07T06:40:25.600Z,708
2016-05-07T06:41:25.587Z,716
2016-05-07T06:42:26.198Z,596
2016-05-07T06:43:25.545Z,608
2016-05-07T06:44:25.375Z,624
2016-05-07T06:45:25.503Z,572
2016-05-07T06:46:25.506Z,524
2016-05-07T06:47:25.462Z,436
2016-05-07T06:48:25.434Z,524
2016-05-07T06:49:25.280Z,676
2016-05-07T06:50:25.267Z,676
2016-05-07T06:51:25.380Z,728
2016-05-07T06:52:25.366Z,608
2016-05-07T06:53:25.181Z,624
2016-05-07T06:54:25.325Z,632
2016-05-07T06:55:25.343Z,728
2016-05-07T06:56:25.299Z,752
2016-05-07T06:57:25.598Z,744
2016-05-07T06:58:25.258Z,744
2016-05-07T06:59:25.088Z,736
2016-05-07T07:00:25.074Z,636
2016-05-07T07:01:25.218Z,548
2016-05-07T07:02:25.205Z,600
2016-05-07T07:03:25.162Z,744
2016-05-07T07:04:24.977Z,928
2016-05-07T07:05:25.135Z,1084
2016-05-07T07:06:25.123Z,1280
2016-05-07T07:07:24.922Z,1692
2016-05-07T07:08:24.926Z,1776
2016-05-07T07:09:24.912Z,1632
2016-05-07T07:10:24.883Z,1216
2016-05-07T07:11:25.012Z,1220
2016-05-07T07:12:25.092Z,1244
2016-05-07T07:13:24.985Z,1228
2016-05-07T07:14:24.816Z,1520
2016-05-07T07:15:24.959Z,1636
2016-05-07T07:16:24.758Z,1768
2016-05-07T07:17:24.903Z,1748
2016-05-07T07:18:24.906Z,1620
2016-05-07T07:19:24.876Z,1728
2016-05-07T07:20:24.691Z,1620
2016-05-07T07:21:24.819Z,1524
2016-05-07T07:22:24.822Z,1544
2016-05-07T07:23:24.637Z,1496
2016-05-07T07:24:24.781Z,1608
2016-05-07T07:25:24.752Z,1604
2016-05-07T07:26:24.583Z,1768
2016-05-07T07:27:25.601Z,1736
2016-05-07T07:28:24.713Z,1788
2016-05-07T07:29:24.684Z,1960
2016-05-07T07:30:24.672Z,1944
2016-05-07T07:31:24.331Z,1908
2016-05-07T07:32:24.630Z,1896
2016-05-07T07:33:24.601Z,1996
2016-05-07T07:34:24.604Z,1900
2016-05-07T07:35:24.560Z,1752
2016-05-07T07:36:24.407Z,1528
2016-05-07T07:37:24.535Z,1428
2016-05-07T07:38:24.365Z,1916
2016-05-07T07:39:24.337Z,1640
2016-05-07T07:40:24.495Z,1776
2016-05-07T07:41:24.310Z,2216
2016-05-07T07:42:24.298Z,2280
2016-05-07T07:43:24.426Z,2000
2016-05-07T07:44:24.397Z,1816
2016-05-07T07:45:24.384Z,1924
2016-05-07T07:46:24.214Z,1832
2016-05-07T07:47:24.342Z,1444
2016-05-07T07:48:24.329Z,1540
2016-05-07T07:49:24.301Z,2168
2016-05-07T07:50:24.303Z,2748
2016-05-07T07:51:24.275Z,2792
2016-05-07T07:52:24.261Z,3320
2016-05-07T07:53:24.078Z,2724
2016-05-07T07:54:24.080Z,2608
2016-05-07T07:55:24.020Z,2312
2016-05-07T07:56:24.164Z,2568
2016-05-07T07:57:24.197Z,2024
2016-05-07T07:58:24.138Z,2124
2016-05-07T07:59:24.124Z,2480
2016-05-07T08:00:23.799Z,2148
2016-05-07T08:01:23.943Z,2884
2016-05-07T08:02:23.930Z,3292
2016-05-07T08:03:24.057Z,3604
2016-05-07T08:04:24.044Z,3388
2016-05-07T08:05:23.874Z,3576
2016-05-07T08:06:24.003Z,2556
2016-05-07T08:07:23.974Z,2568
2016-05-07T08:08:23.821Z,2864
2016-05-07T08:09:23.932Z,2336
2016-05-07T08:10:23.920Z,2348
2016-05-07T08:11:23.907Z,2560
2016-05-07T08:12:24.315Z,2300
2016-05-07T08:13:23.881Z,2256
2016-05-07T08:14:23.853Z,2772
2016-05-07T08:15:23.823Z,2520
2016-05-07T08:16:23.812Z,1820
2016-05-07T08:17:23.782Z,2148
2016-05-07T08:18:23.769Z,2680
2016-05-07T08:19:23.787Z,2548
2016-05-07T08:20:23.744Z,2072
2016-05-07T08:21:23.731Z,1748
2016-05-07T08:22:23.734Z,1624
2016-05-07T08:23:23.689Z,1548
2016-05-07T08:24:23.504Z,1916
2016-05-07T08:25:23.647Z,2672
2016-05-07T08:26:23.620Z,2600
2016-05-07T08:27:23.653Z,1740
2016-05-07T08:28:23.608Z,1868
2016-05-07T08:29:23.569Z,1620
2016-05-07T08:30:23.599Z,1504
2016-05-07T08:31:23.615Z,2420
2016-05-07T08:32:23.660Z,2312
2016-05-07T08:33:23.706Z,2088
2016-05-07T08:34:23.560Z,1848
2016-05-07T08:35:23.703Z,2060
2016-05-07T08:36:23.691Z,2132
2016-05-07T08:37:23.693Z,1844
2016-05-07T08:38:23.695Z,1900
2016-05-07T08:39:23.696Z,3656
2016-05-07T08:40:23.674Z,4740
2016-05-07T08:41:23.650Z,5000
2016-05-07T08:42:25.097Z,4996
2016-05-07T08:43:23.464Z,5368
2016-05-07T08:44:23.441Z,5484
2016-05-07T08:45:23.602Z,5956
2016-05-07T08:46:23.592Z,6076
2016-05-07T08:47:23.549Z,4232
2016-05-07T08:48:23.553Z,4040
2016-05-07T08:49:23.387Z,3288
2016-05-07T08:50:23.515Z,2460
2016-05-07T08:51:23.502Z,2600
2016-05-07T08:52:23.491Z,3768
2016-05-07T08:53:23.306Z,4292
2016-05-07T08:54:23.481Z,3204
2016-05-07T08:55:23.422Z,3584
2016-05-07T08:56:23.410Z,3280
2016-05-07T08:57:23.100Z,3416
2016-05-07T08:58:23.385Z,4192
2016-05-07T08:59:23.356Z,4444
2016-05-07T09:00:23.187Z,5080
2016-05-07T09:01:23.158Z,3564
2016-05-07T09:02:23.333Z,4564
2016-05-07T09:03:23.288Z,4400
2016-05-07T09:04:23.261Z,2416
2016-05-07T09:05:23.232Z,2432
2016-05-07T09:06:23.063Z,2952
2016-05-07T09:07:23.221Z,3356
2016-05-07T09:08:23.021Z,3400
2016-05-07T09:09:23.180Z,3740
2016-05-07T09:10:23.168Z,4756
2016-05-07T09:11:23.123Z,4596
2016-05-07T09:12:23.173Z,3224
2016-05-07T09:13:23.097Z,2888
2016-05-07T09:14:22.929Z,2708
2016-05-07T09:15:23.056Z,3116
2016-05-07T09:16:23.059Z,3004
2016-05-07T09:17:23.045Z,2720
2016-05-07T09:18:22.845Z,4480
2016-05-07T09:19:22.848Z,4740
2016-05-07T09:20:22.992Z,3984
2016-05-07T09:21:22.962Z,2804
2016-05-07T09:22:22.777Z,1772
2016-05-07T09:23:22.921Z,1256
2016-05-07T09:24:22.908Z,1368
2016-05-07T09:25:22.880Z,2056
2016-05-07T09:26:22.851Z,1976
2016-05-07T09:27:23.869Z,1924
2016-05-07T09:28:22.841Z,2088
2016-05-07T09:29:22.812Z,2136
2016-05-07T09:30:22.783Z,3644
2016-05-07T09:31:22.771Z,3548
2016-05-07T09:32:22.741Z,3664
2016-05-07T09:33:22.744Z,3876
2016-05-07T09:34:22.732Z,4896
2016-05-07T09:35:22.703Z,3708
2016-05-07T09:36:22.535Z,4748
2016-05-07T09:37:22.349Z,3628
2016-05-07T09:38:22.493Z,3292
2016-05-07T09:39:22.463Z,3592
2016-05-07T09:40:22.607Z,3492
2016-05-07T09:41:22.594Z,4008
2016-05-07T09:42:22.472Z,4072
2016-05-07T09:43:22.396Z,4216
2016-05-07T09:44:22.540Z,4740
2016-05-07T09:45:22.512Z,4512
2016-05-07T09:46:22.515Z,3884
2016-05-07T09:47:22.501Z,3692
2016-05-07T09:48:22.473Z,3060
2016-05-07T09:49:22.459Z,3428
2016-05-07T09:50:22.275Z,2688
2016-05-07T09:51:22.418Z,2892
2016-05-07T09:52:22.374Z,2452
2016-05-07T09:53:22.205Z,2484
2016-05-07T09:54:22.364Z,4184
2016-05-07T09:55:22.335Z,4296
2016-05-07T09:56:22.323Z,3936
2016-05-07T09:57:22.278Z,3616
2016-05-07T09:58:22.281Z,4364
2016-05-07T09:59:22.267Z,3260
2016-05-07T10:00:22.239Z,2536
2016-05-07T10:01:22.242Z,3048
2016-05-07T10:02:22.214Z,2952
2016-05-07T10:03:22.169Z,3536
2016-05-07T10:04:22.031Z,3228
2016-05-07T10:05:22.159Z,4212
2016-05-07T10:06:21.990Z,4128
2016-05-07T10:07:21.961Z,4340
2016-05-07T10:08:22.105Z,4288
2016-05-07T10:09:21.810Z,3836
2016-05-07T10:10:22.063Z,2956
2016-05-07T10:11:21.894Z,4292
2016-05-07T10:12:21.771Z,3560
2016-05-07T10:13:22.024Z,2704
2016-05-07T10:14:21.824Z,3540
2016-05-07T10:15:21.826Z,3148
2016-05-07T10:16:21.673Z,3832
2016-05-07T10:17:21.941Z,3716
2016-05-07T10:18:21.757Z,3656
2016-05-07T10:19:21.759Z,3756
2016-05-07T10:20:21.887Z,2840
2016-05-07T10:21:21.874Z,2772
2016-05-07T10:22:21.861Z,3092
2016-05-07T10:23:21.831Z,2560
2016-05-07T10:24:21.663Z,2368
2016-05-07T10:25:21.792Z,2348
2016-05-07T10:26:21.778Z,2272
2016-05-07T10:27:22.249Z,3292
2016-05-07T10:28:21.732Z,4804
2016-05-07T10:29:21.734Z,3948
2016-05-07T10:30:21.549Z,5064
2016-05-07T10:31:21.678Z,2996
2016-05-07T10:32:21.664Z,4232
2016-05-07T10:33:21.651Z,2416
2016-05-07T10:34:21.622Z,2164
2016-05-07T10:35:21.454Z,2956
2016-05-07T10:36:21.597Z,2568
2016-05-07T10:37:21.411Z,4532
2016-05-07T10:38:21.572Z,3484
2016-05-07T10:39:21.527Z,3664
2016-05-07T10:40:21.529Z,4672
2016-05-07T10:41:21.501Z,3516
2016-05-07T10:42:21.535Z,3120
2016-05-07T10:43:21.319Z,3492
2016-05-07T10:44:21.618Z,3644
2016-05-07T10:45:21.433Z,2684
2016-05-07T10:46:21.405Z,2584
2016-05-07T10:47:21.392Z,3872
2016-05-07T10:48:21.363Z,3496
2016-05-07T10:49:21.366Z,3156
2016-05-07T10:50:21.026Z,3144
2016-05-07T10:51:21.324Z,3824
2016-05-07T10:52:21.156Z,3512
2016-05-07T10:53:21.127Z,2600
2016-05-07T10:54:21.379Z,2976
2016-05-07T10:55:21.257Z,2620
2016-05-07T10:56:21.244Z,2864
2016-05-07T10:57:21.123Z,3900
2016-05-07T10:58:21.203Z,3680
2016-05-07T10:59:21.189Z,3644
2016-05-07T11:00:20.990Z,3228
2016-05-07T11:01:21.133Z,3004
2016-05-07T11:02:21.103Z,2384
2016-05-07T11:03:20.950Z,2608
2016-05-07T11:04:21.079Z,4364
2016-05-07T11:05:21.066Z,3560
2016-05-07T11:06:21.036Z,2808
2016-05-07T11:07:21.025Z,2548
2016-05-07T11:08:21.011Z,1820
2016-05-07T11:09:20.997Z,2360
2016-05-07T11:10:20.969Z,4024
2016-05-07T11:11:20.972Z,2824
2016-05-07T11:12:20.835Z,2428
2016-05-07T11:13:20.915Z,2068
2016-05-07T11:14:20.902Z,2212
2016-05-07T11:15:20.874Z,3084
2016-05-07T11:16:20.860Z,2872
2016-05-07T11:17:20.848Z,3180
2016-05-07T11:18:20.819Z,3284
2016-05-07T11:19:20.822Z,4228
2016-05-07T11:20:20.793Z,2872
2016-05-07T11:21:20.780Z,3220
2016-05-07T11:22:20.782Z,2312
2016-05-07T11:23:21.035Z,1980
2016-05-07T11:24:20.726Z,1852
2016-05-07T11:25:20.682Z,2036
2016-05-07T11:26:20.684Z,2448
2016-05-07T11:27:21.312Z,3072
2016-05-07T11:28:20.643Z,4572
2016-05-07T11:29:20.614Z,2708
2016-05-07T11:30:20.445Z,2828
2016-05-07T11:31:20.589Z,2424
2016-05-07T11:32:20.559Z,2016
2016-05-07T11:33:20.548Z,2196
2016-05-07T11:34:20.550Z,3136
2016-05-07T11:35:20.522Z,2668
2016-05-07T11:36:20.492Z,3236
2016-05-07T11:37:20.479Z,2156
2016-05-07T11:38:20.451Z,2008
2016-05-07T11:39:20.438Z,1796
2016-05-07T11:40:20.425Z,3708
2016-05-07T11:41:20.255Z,4476
2016-05-07T11:42:20.634Z,5652
2016-05-07T11:43:20.199Z,5336
2016-05-07T11:44:20.341Z,6244
2016-05-07T11:45:20.330Z,4948
2016-05-07T11:46:20.332Z,5684
2016-05-07T11:47:20.288Z,4296
2016-05-07T11:48:20.290Z,2452
2016-05-07T11:49:20.246Z,3784
2016-05-07T11:50:20.093Z,5908
2016-05-07T11:51:20.221Z,5196
2016-05-07T11:52:20.020Z,4104
2016-05-07T11:53:20.023Z,4124
2016-05-07T11:54:20.151Z,4292
2016-05-07T11:55:19.996Z,3364
2016-05-07T11:56:20.140Z,2744
2016-05-07T11:57:19.970Z,2944
2016-05-07T11:58:20.099Z,3652
2016-05-07T11:59:20.054Z,4252
2016-05-07T12:00:20.057Z,2708
2016-05-07T12:01:20.044Z,3492
2016-05-07T12:02:19.875Z,3592
2016-05-07T12:03:20.003Z,3408
2016-05-07T12:04:19.989Z,4256
2016-05-07T12:05:19.977Z,2768
2016-05-07T12:06:19.933Z,4044
2016-05-07T12:07:19.936Z,3480
2016-05-07T12:08:19.750Z,3676
2016-05-07T12:09:19.738Z,2108
2016-05-07T12:10:19.866Z,1652
2016-05-07T12:11:19.696Z,3096
2016-05-07T12:12:20.199Z,3012
2016-05-07T12:13:19.655Z,2300
2016-05-07T12:14:19.782Z,2284
2016-05-07T12:15:19.613Z,2956
2016-05-07T12:16:19.772Z,2516
2016-05-07T12:17:19.743Z,1820
2016-05-07T12:18:19.730Z,2400
2016-05-07T12:19:19.718Z,2616
2016-05-07T12:20:19.689Z,2124
2016-05-07T12:21:19.660Z,3404
2016-05-07T12:22:19.491Z,3132
2016-05-07T12:23:19.494Z,3748
2016-05-07T12:24:19.621Z,3792
2016-05-07T12:25:19.593Z,3656
2016-05-07T12:26:19.423Z,2808
2016-05-07T12:27:19.958Z,2696
2016-05-07T12:28:19.554Z,2740
2016-05-07T12:29:19.526Z,2344
2016-05-07T12:30:19.356Z,1700
2016-05-07T12:31:19.343Z,1760
2016-05-07T12:32:19.471Z,2084
2016-05-07T12:33:19.442Z,2364
2016-05-07T12:34:19.446Z,2256
2016-05-07T12:35:19.244Z,2184
2016-05-07T12:36:19.389Z,2392
2016-05-07T12:37:19.359Z,2532
2016-05-07T12:38:19.378Z,2620
2016-05-07T12:39:19.333Z,2880
2016-05-07T12:40:19.025Z,2496
2016-05-07T12:41:19.136Z,2572
2016-05-07T12:42:19.311Z,4392
2016-05-07T12:43:19.344Z,3004
2016-05-07T12:44:19.097Z,4936
2016-05-07T12:45:19.241Z,2836
2016-05-07T12:46:19.213Z,1996
2016-05-07T12:47:19.199Z,1564
2016-05-07T12:48:19.171Z,1208
2016-05-07T12:49:19.142Z,1228
2016-05-07T12:50:19.129Z,1124
2016-05-07T12:51:19.101Z,1188
2016-05-07T12:52:19.103Z,2676
2016-05-07T12:53:18.902Z,2712
2016-05-07T12:54:19.076Z,2888
2016-05-07T12:55:18.752Z,3120
2016-05-07T12:56:18.864Z,3364
2016-05-07T12:57:19.726Z,3784
2016-05-07T12:58:18.995Z,4308
2016-05-07T12:59:18.982Z,3232
2016-05-07T13:00:18.937Z,2584
2016-05-07T13:01:18.924Z,1640
2016-05-07T13:02:18.912Z,1788
2016-05-07T13:03:18.898Z,3916
2016-05-07T13:04:18.886Z,5072
2016-05-07T13:05:18.872Z,5672
2016-05-07T13:06:18.859Z,4524
2016-05-07T13:07:18.659Z,5740
2016-05-07T13:08:18.802Z,5384
2016-05-07T13:09:18.789Z,5564
2016-05-07T13:10:18.620Z,5436
2016-05-07T13:11:18.592Z,5980
2016-05-07T13:12:18.750Z,5516
2016-05-07T13:13:18.566Z,5108
2016-05-07T13:14:18.693Z,5480
2016-05-07T13:15:18.666Z,4324
2016-05-07T13:16:18.652Z,4928
2016-05-07T13:17:18.498Z,5288
2016-05-07T13:18:18.469Z,4320
2016-05-07T13:19:18.613Z,5024
2016-05-07T13:20:18.585Z,6544
2016-05-07T13:21:18.587Z,7104
2016-05-07T13:22:18.387Z,7332
2016-05-07T13:23:18.530Z,7108
2016-05-07T13:24:18.501Z,7220
2016-05-07T13:25:18.488Z,8400
2016-05-07T13:26:18.476Z,8180
2016-05-07T13:27:18.213Z,7896
2016-05-07T13:28:18.465Z,7768
2016-05-07T13:29:18.421Z,6752
2016-05-07T13:30:18.392Z,7148
2016-05-07T13:31:18.223Z,6396
2016-05-07T13:32:18.211Z,6208
2016-05-07T13:33:18.354Z,6584
2016-05-07T13:34:18.184Z,6256
2016-05-07T13:35:18.312Z,7492
2016-05-07T13:36:18.143Z,7372
2016-05-07T13:37:18.131Z,7036
2016-05-07T13:38:18.258Z,7268
2016-05-07T13:39:18.245Z,5884
2016-05-07T13:40:18.217Z,6028
2016-05-07T13:41:18.203Z,6148
2016-05-07T13:42:19.191Z,5528
2016-05-07T13:43:18.006Z,5560
2016-05-07T13:44:17.994Z,4904
2016-05-07T13:45:18.152Z,5824
2016-05-07T13:46:18.108Z,4468
2016-05-07T13:47:18.094Z,5572
2016-05-07T13:48:18.066Z,3648
2016-05-07T13:49:18.053Z,4532
2016-05-07T13:50:18.041Z,3712
2016-05-07T13:51:17.871Z,3552
2016-05-07T13:52:17.999Z,4064
2016-05-07T13:53:17.986Z,3744
2016-05-07T13:54:17.958Z,4292
2016-05-07T13:55:17.960Z,3828